Terminal Aerodrome Forecast
Issued by NWS

Home | Current Version | Previous Version | Text Only | Print | Product List | Glossary On
Versions: 1 2 3 4 5 6 7 8 9 10 11 12 13 14 15 16 17 18
000
FTUS42 KTAE 152300
TAFDHN
TAF
KDHN 152320Z 1600/1624 20004KT P6SM VCTS SCT050CB OVC250
     FM161100 32003KT 4SM BR SCT015
     FM161400 34004KT P6SM OVC250
     FM162000 35006KT P6SM VCTS SCT035CB BKN250=

USA.gov is the U.S. government's official web portal to all federal, state and local government web resources and services.